| Date | Time | Temp. (oF) | Dew Point (oF) | Rel. Hum. (%) | Press. (in.) | Wind Dir. | Wind Speed (mph) | Hourly Rainfall (in.) |
|
|---|---|---|---|---|---|---|---|---|---|
| 1 | 05/19 | 00:00 | 63 | 60 | 91 | 30.04 | ESE | 3 | 0.00 |
| 2 | 05/18 | 23:00 | 64 | 61 | 91 | 30.05 | NNE | 4 | 0.36 |
| 3 | 05/18 | 22:00 | 65 | 62 | 92 | 30.05 | NE | 4 | 0.00 |
| 4 | 05/18 | 21:00 | 67 | 64 | 92 | 30.02 | ESE | 3 | 0.19 |
| 5 | 05/18 | 20:00 | 71 | 68 | 91 | 30.04 | NE | 3 | 0.05 |
| 6 | 05/18 | 19:00 | 74 | 69 | 87 | 29.99 | SE | 11 | 0.00 |
| 7 | 05/18 | 18:00 | 77 | 71 | 82 | 29.98 | ESE | 11 | 0.00 |
| 8 | 05/18 | 17:00 | 83 | 71 | 69 | 29.98 | SSE | 6 | 0.00 |
| 9 | 05/18 | 16:00 | 83 | 72 | 71 | 29.99 | SE | 3 | 0.00 |
| 10 | 05/18 | 15:00 | 86 | 68 | 56 | 30.01 | S | 4 | 0.00 |
| 11 | 05/18 | 14:00 | 84 | 72 | 68 | 30.04 | SSW | 3 | 0.01 |
| 12 | 05/18 | 13:00 | 82 | 72 | 72 | 30.06 | E | 0 | 0.01 |
| 13 | 05/18 | 12:00 | 81 | 71 | 73 | 30.08 | NE | 2 | 0.00 |
| 14 | 05/18 | 11:00 | 80 | 73 | 81 | 30.08 | SE | 2 | 0.00 |
| 15 | 05/18 | 10:00 | 77 | 73 | 89 | 30.09 | SSE | 3 | 0.00 |
| 16 | 05/18 | 09:00 | 72 | 69 | 91 | 30.10 | N | 0 | 0.00 |
| 17 | 05/18 | 08:00 | 69 | 64 | 87 | 30.10 | SSW | 0 | 0.00 |
| 18 | 05/18 | 07:00 | 68 | 64 | 89 | 30.10 | ENE | 0 | 0.00 |
| 19 | 05/18 | 06:00 | 68 | 64 | 90 | 30.09 | SSW | 0 | 0.00 |
| 20 | 05/18 | 05:00 | 67 | 63 | 90 | 30.09 | WSW | 0 | 0.00 |
| 21 | 05/18 | 04:00 | 68 | 65 | 91 | 30.08 | S | 0 | 0.00 |
| 22 | 05/18 | 03:00 | 69 | 66 | 91 | 30.09 | N | 0 | 0.01 |
| 23 | 05/18 | 02:00 | 69 | 66 | 92 | 30.10 | W | 0 | 0.01 |
| 24 | 05/18 | 01:00 | 69 | 66 | 92 | 30.11 | S | 0 | 0.00 |